createdAt,value
2022-09-20T00:00:10.945Z,1.80
2022-09-20T00:01:11.619Z,1.70
2022-09-20T00:02:10.881Z,2.20
2022-09-20T00:03:10.879Z,1.70
2022-09-20T00:04:10.877Z,1.80
2022-09-20T00:05:10.983Z,1.50
2022-09-20T00:06:10.846Z,1.90
2022-09-20T00:07:10.864Z,1.60
2022-09-20T00:08:10.839Z,1.80
2022-09-20T00:09:10.829Z,1.50
2022-09-20T00:10:10.819Z,1.50
2022-09-20T00:11:10.806Z,1.50
2022-09-20T00:12:10.801Z,1.60
2022-09-20T00:13:10.756Z,1.50
2022-09-20T00:14:10.829Z,1.70
2022-09-20T00:15:10.760Z,1.70
2022-09-20T00:16:10.824Z,1.40
2022-09-20T00:17:10.743Z,1.60
2022-09-20T00:18:10.752Z,1.50
2022-09-20T00:19:10.779Z,1.40
2022-09-20T00:20:10.695Z,1.60
2022-09-20T00:21:10.680Z,1.40
2022-09-20T00:22:10.663Z,1.50
2022-09-20T00:23:10.695Z,1.50
2022-09-20T00:24:10.688Z,1.70
2022-09-20T00:25:10.654Z,1.40
2022-09-20T00:26:10.623Z,1.70
2022-09-20T00:27:10.630Z,1.60
2022-09-20T00:28:10.636Z,1.80
2022-09-20T00:29:10.720Z,1.60
2022-09-20T00:30:10.577Z,1.90
2022-09-20T00:31:10.573Z,1.70
2022-09-20T00:32:10.647Z,1.90
2022-09-20T00:33:10.560Z,1.80
2022-09-20T00:34:10.560Z,2.10
2022-09-20T00:35:10.562Z,2.00
2022-09-20T00:36:10.540Z,1.70
2022-09-20T00:37:10.567Z,1.80
2022-09-20T00:38:10.492Z,1.80
2022-09-20T00:39:10.530Z,1.90
2022-09-20T00:40:10.547Z,2.10
2022-09-20T00:41:10.540Z,1.60
2022-09-20T00:42:10.529Z,2.10
2022-09-20T00:43:10.461Z,2.10
2022-09-20T00:44:10.439Z,1.80
2022-09-20T00:45:10.431Z,2.40
2022-09-20T00:46:10.452Z,1.50
2022-09-20T00:47:10.427Z,1.80
2022-09-20T00:48:10.462Z,1.80
2022-09-20T00:49:10.435Z,2.00
2022-09-20T00:50:10.361Z,1.80
2022-09-20T00:51:10.368Z,2.20
2022-09-20T00:52:10.344Z,1.60
2022-09-20T00:53:10.348Z,1.80
2022-09-20T00:54:10.342Z,1.70
2022-09-20T00:55:10.329Z,1.80
2022-09-20T00:56:10.322Z,1.40
2022-09-20T00:57:10.364Z,1.70
2022-09-20T00:58:10.330Z,1.70
2022-09-20T00:59:10.326Z,1.70
2022-09-20T01:00:10.254Z,2.30
2022-09-20T01:01:10.365Z,1.70
2022-09-20T01:02:10.282Z,1.80
2022-09-20T01:03:10.337Z,2.20
2022-09-20T01:04:10.227Z,1.60
2022-09-20T01:05:10.224Z,1.90
2022-09-20T01:06:10.242Z,1.70
2022-09-20T01:07:10.187Z,1.80
2022-09-20T01:08:10.169Z,1.60
2022-09-20T01:09:10.327Z,1.60
2022-09-20T01:10:10.177Z,1.70
2022-09-20T01:11:10.146Z,2.60
2022-09-20T01:12:10.193Z,2.30
2022-09-20T01:13:10.137Z,2.30
2022-09-20T01:14:10.133Z,2.10
2022-09-20T01:15:10.114Z,2.20
2022-09-20T01:16:10.169Z,1.80
2022-09-20T01:17:10.069Z,2.20
2022-09-20T01:18:10.070Z,1.80
2022-09-20T01:19:10.166Z,1.60
2022-09-20T01:20:10.051Z,1.60
2022-09-20T01:21:10.032Z,1.80
2022-09-20T01:22:10.081Z,1.60
2022-09-20T01:23:10.111Z,1.80
2022-09-20T01:24:10.030Z,1.60
2022-09-20T01:25:09.992Z,1.60
2022-09-20T01:26:09.971Z,1.40
2022-09-20T01:27:09.960Z,1.60
2022-09-20T01:28:09.951Z,1.30
2022-09-20T01:29:09.988Z,1.60
2022-09-20T01:30:09.993Z,1.70
2022-09-20T01:31:09.926Z,1.40
2022-09-20T01:32:09.960Z,1.80
2022-09-20T01:33:09.908Z,1.60
2022-09-20T01:34:09.884Z,1.80
2022-09-20T01:35:09.922Z,1.70
2022-09-20T01:36:09.942Z,1.60
2022-09-20T01:37:09.865Z,1.60
2022-09-20T01:38:09.833Z,1.40
2022-09-20T01:39:09.825Z,1.70
2022-09-20T01:40:09.905Z,1.60
2022-09-20T01:41:09.837Z,1.60
2022-09-20T01:42:09.794Z,1.70
2022-09-20T01:43:09.794Z,1.60
2022-09-20T01:44:09.787Z,1.40
2022-09-20T01:45:09.796Z,1.60
2022-09-20T01:46:09.787Z,1.30
2022-09-20T01:47:09.761Z,1.90
2022-09-20T01:48:09.755Z,1.70
2022-09-20T01:49:09.853Z,2.10
2022-09-20T01:50:09.764Z,1.40
2022-09-20T01:51:09.690Z,2.00
2022-09-20T01:52:09.694Z,1.60
2022-09-20T01:53:09.698Z,2.20
2022-09-20T01:54:09.665Z,1.70
2022-09-20T01:55:09.674Z,1.70
2022-09-20T01:56:09.673Z,1.70
2022-09-20T01:57:09.628Z,1.50
2022-09-20T01:58:09.632Z,1.70
2022-09-20T01:59:24.903Z,1.70
2022-09-20T02:00:10.603Z,1.50
2022-09-20T02:01:09.666Z,1.90
2022-09-20T02:02:09.695Z,1.60
2022-09-20T02:03:09.608Z,2.10
2022-09-20T02:04:09.577Z,1.60
2022-09-20T02:05:09.570Z,2.40
2022-09-20T02:06:09.557Z,1.80
2022-09-20T02:07:09.521Z,1.60
2022-09-20T02:08:09.522Z,1.80
2022-09-20T02:09:09.538Z,1.80
2022-09-20T02:10:09.536Z,1.60
2022-09-20T02:11:09.483Z,2.00
2022-09-20T02:12:09.492Z,1.40
2022-09-20T02:13:09.479Z,2.00
2022-09-20T02:14:09.453Z,1.50
2022-09-20T02:15:09.509Z,1.60
2022-09-20T02:16:09.487Z,1.50
2022-09-20T02:17:09.420Z,1.90
2022-09-20T02:18:09.422Z,2.00
2022-09-20T02:19:09.447Z,2.10
2022-09-20T02:20:09.401Z,1.40
2022-09-20T02:21:09.380Z,2.30
2022-09-20T02:22:09.446Z,1.30
2022-09-20T02:23:09.443Z,1.70
2022-09-20T02:24:09.416Z,1.70
2022-09-20T02:25:09.339Z,1.60
2022-09-20T02:26:09.337Z,1.70
2022-09-20T02:27:09.307Z,1.80
2022-09-20T02:28:09.322Z,1.70
2022-09-20T02:29:09.306Z,1.70
2022-09-20T02:30:09.332Z,1.60
2022-09-20T02:31:09.286Z,2.10
2022-09-20T02:32:09.274Z,1.40
2022-09-20T02:33:09.240Z,1.50
2022-09-20T02:34:09.272Z,1.50
2022-09-20T02:35:09.264Z,1.60
2022-09-20T02:36:09.225Z,1.50
2022-09-20T02:37:09.204Z,1.60
2022-09-20T02:38:09.207Z,1.60
2022-09-20T02:39:09.186Z,2.20
2022-09-20T02:40:09.282Z,1.60
2022-09-20T02:41:09.161Z,2.00
2022-09-20T02:42:09.249Z,1.70
2022-09-20T02:43:09.143Z,2.50
2022-09-20T02:44:09.160Z,1.80
2022-09-20T02:45:09.148Z,2.00
2022-09-20T02:46:09.194Z,1.80
2022-09-20T02:47:09.093Z,2.00
2022-09-20T02:48:09.246Z,1.80
2022-09-20T02:49:09.077Z,1.70
2022-09-20T02:50:09.094Z,1.90
2022-09-20T02:51:09.079Z,1.80
2022-09-20T02:52:09.058Z,1.70
2022-09-20T02:53:09.021Z,1.60
2022-09-20T02:54:09.042Z,1.90
2022-09-20T02:55:09.028Z,1.60
2022-09-20T02:56:09.007Z,1.80
2022-09-20T02:57:08.982Z,1.70
2022-09-20T02:58:09.056Z,1.80
2022-09-20T02:59:08.976Z,1.80
2022-09-20T03:00:09.023Z,1.90
2022-09-20T03:01:08.986Z,1.90
2022-09-20T03:02:09.023Z,1.90
2022-09-20T03:03:08.955Z,2.00
2022-09-20T03:04:08.914Z,1.90
2022-09-20T03:05:08.908Z,1.80
2022-09-20T03:06:08.907Z,2.10
2022-09-20T03:07:08.905Z,1.60
2022-09-20T03:08:08.860Z,1.50
2022-09-20T03:09:08.900Z,1.60
2022-09-20T03:10:08.889Z,2.00
2022-09-20T03:11:08.824Z,1.70
2022-09-20T03:12:08.853Z,1.80
2022-09-20T03:13:08.837Z,1.90
2022-09-20T03:14:08.911Z,1.70
2022-09-20T03:15:08.789Z,1.50
2022-09-20T03:16:08.821Z,1.90
2022-09-20T03:17:08.840Z,1.80
2022-09-20T03:18:08.763Z,1.60
2022-09-20T03:19:08.745Z,1.70
2022-09-20T03:20:08.753Z,1.80
2022-09-20T03:21:08.794Z,1.90
2022-09-20T03:22:08.715Z,1.60
2022-09-20T03:23:08.717Z,1.90
2022-09-20T03:24:08.702Z,1.70
2022-09-20T03:25:08.705Z,1.90
2022-09-20T03:26:08.664Z,1.70
2022-09-20T03:27:08.684Z,1.60
2022-09-20T03:28:08.688Z,1.60
2022-09-20T03:29:08.693Z,1.40
2022-09-20T03:30:08.653Z,1.50
2022-09-20T03:31:08.611Z,1.50
2022-09-20T03:32:08.719Z,1.80
2022-09-20T03:33:08.591Z,2.10
2022-09-20T03:34:08.605Z,2.80
2022-09-20T03:35:08.634Z,1.90
2022-09-20T03:36:08.623Z,1.80
2022-09-20T03:37:08.558Z,2.00
2022-09-20T03:38:08.554Z,1.70
2022-09-20T03:39:08.533Z,1.50
2022-09-20T03:40:08.594Z,1.90
2022-09-20T03:41:08.545Z,1.60
2022-09-20T03:42:08.501Z,1.70
2022-09-20T03:43:08.491Z,1.70
2022-09-20T03:44:08.580Z,1.70
2022-09-20T03:45:08.485Z,2.00
2022-09-20T03:46:08.554Z,2.00
2022-09-20T03:47:08.474Z,1.90
2022-09-20T03:48:08.431Z,1.70
2022-09-20T03:49:08.468Z,2.10
2022-09-20T03:50:08.416Z,1.70
2022-09-20T03:51:08.422Z,1.90
2022-09-20T03:52:08.384Z,1.50
2022-09-20T03:53:08.380Z,2.00
2022-09-20T03:54:08.472Z,1.70
2022-09-20T03:55:08.370Z,1.80
2022-09-20T03:56:08.335Z,1.50
2022-09-20T03:57:08.445Z,1.90
2022-09-20T03:58:09.081Z,1.80
2022-09-20T03:59:08.376Z,1.70
2022-09-20T04:00:08.364Z,1.60
2022-09-20T04:01:08.425Z,1.70
2022-09-20T04:02:08.400Z,2.10
2022-09-20T04:03:08.277Z,1.60
2022-09-20T04:04:08.310Z,2.00
2022-09-20T04:05:08.290Z,1.90
2022-09-20T04:06:08.231Z,1.60
2022-09-20T04:07:08.373Z,1.80
2022-09-20T04:08:08.246Z,2.00
2022-09-20T04:09:08.249Z,2.20
2022-09-20T04:10:08.203Z,2.00
2022-09-20T04:11:08.214Z,1.80
2022-09-20T04:12:08.173Z,2.00
2022-09-20T04:13:08.197Z,1.80
2022-09-20T04:14:11.274Z,2.30
2022-09-20T04:15:08.201Z,2.10
2022-09-20T04:16:08.161Z,2.10
2022-09-20T04:17:08.176Z,1.80
2022-09-20T04:18:08.098Z,2.30
2022-09-20T04:19:08.144Z,1.60
2022-09-20T04:20:08.110Z,1.80
2022-09-20T04:21:08.062Z,1.70
2022-09-20T04:22:08.064Z,1.90
2022-09-20T04:23:08.076Z,1.90
2022-09-20T04:24:08.026Z,2.10
2022-09-20T04:25:08.050Z,1.80
2022-09-20T04:26:08.008Z,2.00
2022-09-20T04:27:08.014Z,2.00
2022-09-20T04:28:07.996Z,2.20
2022-09-20T04:29:08.083Z,1.80
2022-09-20T04:30:08.026Z,1.70
2022-09-20T04:31:08.006Z,1.90
2022-09-20T04:32:08.008Z,1.70
2022-09-20T04:33:07.967Z,1.70
2022-09-20T04:34:07.969Z,1.80
2022-09-20T04:35:07.911Z,1.90
2022-09-20T04:36:07.974Z,2.10
2022-09-20T04:37:07.891Z,2.90
2022-09-20T04:38:07.894Z,2.70
2022-09-20T04:39:07.889Z,2.10
2022-09-20T04:40:07.976Z,1.90
2022-09-20T04:41:07.858Z,2.40
2022-09-20T04:42:07.883Z,2.10
2022-09-20T04:43:07.847Z,2.00
2022-09-20T04:44:07.889Z,2.10
2022-09-20T04:45:07.837Z,2.20
2022-09-20T04:46:07.859Z,1.90
2022-09-20T04:47:07.774Z,1.80
2022-09-20T04:48:07.790Z,2.30
2022-09-20T04:49:07.761Z,2.10
2022-09-20T04:50:07.849Z,2.60
2022-09-20T04:51:07.808Z,2.50
2022-09-20T04:52:07.769Z,2.10
2022-09-20T04:53:07.744Z,2.30
2022-09-20T04:54:07.734Z,2.00
2022-09-20T04:55:07.731Z,2.30
2022-09-20T04:56:07.698Z,2.20
2022-09-20T04:57:07.710Z,2.50
2022-09-20T04:58:07.687Z,2.10
2022-09-20T04:59:08.234Z,2.20
2022-09-20T05:00:07.651Z,2.30
2022-09-20T05:01:07.695Z,1.80
2022-09-20T05:02:07.751Z,1.90
2022-09-20T05:03:07.631Z,2.30
2022-09-20T05:04:07.647Z,2.00
2022-09-20T05:05:07.630Z,1.70
2022-09-20T05:06:07.572Z,2.20
2022-09-20T05:07:07.570Z,2.00
2022-09-20T05:08:07.636Z,2.00
2022-09-20T05:09:07.574Z,2.40
2022-09-20T05:10:07.827Z,2.00
2022-09-20T05:11:07.549Z,2.50
2022-09-20T05:12:07.560Z,1.90
2022-09-20T05:13:07.505Z,2.10
2022-09-20T05:14:07.532Z,1.90
2022-09-20T05:15:07.525Z,1.80
2022-09-20T05:16:07.535Z,1.90
2022-09-20T05:17:07.553Z,1.70
2022-09-20T05:18:07.455Z,1.70
2022-09-20T05:19:07.467Z,1.90
2022-09-20T05:20:07.457Z,1.70
2022-09-20T05:21:07.409Z,1.60
2022-09-20T05:22:07.407Z,1.80
2022-09-20T05:23:07.397Z,2.20
2022-09-20T05:24:09.484Z,3.00
2022-09-20T05:25:07.416Z,4.40
2022-09-20T05:26:07.399Z,2.40
2022-09-20T05:27:07.344Z,3.10
2022-09-20T05:28:07.430Z,2.30
2022-09-20T05:29:07.345Z,2.50
2022-09-20T05:30:07.417Z,3.20
2022-09-20T05:31:07.365Z,2.00
2022-09-20T05:32:07.373Z,2.20
2022-09-20T05:33:07.307Z,1.90
2022-09-20T05:34:07.344Z,2.20
2022-09-20T05:35:07.286Z,2.10
2022-09-20T05:36:07.274Z,2.30
2022-09-20T05:37:07.262Z,2.10
2022-09-20T05:38:07.279Z,1.90
2022-09-20T05:39:07.233Z,1.80
2022-09-20T05:40:07.261Z,1.60
2022-09-20T05:41:07.209Z,1.90
2022-09-20T05:42:07.239Z,1.60
2022-09-20T05:43:07.185Z,2.20
2022-09-20T05:44:07.318Z,1.70
2022-09-20T05:45:07.199Z,2.00
2022-09-20T05:46:07.197Z,1.60
2022-09-20T05:47:07.171Z,2.50
2022-09-20T05:48:07.149Z,2.10
2022-09-20T05:49:07.134Z,2.20
2022-09-20T05:50:07.116Z,1.90
2022-09-20T05:51:07.092Z,1.90
2022-09-20T05:52:07.108Z,2.30
2022-09-20T05:53:07.070Z,2.10
2022-09-20T05:54:07.054Z,2.30
2022-09-20T05:55:07.048Z,2.30
2022-09-20T05:56:07.052Z,2.20
2022-09-20T05:57:07.033Z,2.20
2022-09-20T05:58:07.053Z,2.20
2022-09-20T05:59:09.927Z,1.90
2022-09-20T06:00:07.014Z,2.60
2022-09-20T06:01:07.030Z,2.20
2022-09-20T06:02:06.990Z,1.80
2022-09-20T06:03:06.999Z,1.90
2022-09-20T06:04:07.023Z,1.90
2022-09-20T06:05:07.046Z,1.40
2022-09-20T06:06:06.944Z,1.70
2022-09-20T06:07:06.930Z,1.70
2022-09-20T06:08:06.914Z,1.40
2022-09-20T06:09:06.936Z,1.40
2022-09-20T06:10:06.965Z,1.30
2022-09-20T06:11:06.897Z,1.30
2022-09-20T06:12:06.856Z,1.30
2022-09-20T06:13:06.855Z,1.60
2022-09-20T06:14:07.308Z,1.40
2022-09-20T06:15:06.873Z,1.50
2022-09-20T06:16:06.812Z,1.90
2022-09-20T06:17:06.801Z,2.30
2022-09-20T06:18:06.900Z,2.10
2022-09-20T06:19:06.838Z,2.10
2022-09-20T06:20:06.796Z,2.20
2022-09-20T06:21:06.799Z,2.30
2022-09-20T06:22:06.750Z,2.20
2022-09-20T06:23:06.748Z,2.10
2022-09-20T06:24:06.780Z,2.30
2022-09-20T06:25:06.709Z,2.30
2022-09-20T06:26:06.712Z,2.10
2022-09-20T06:27:06.697Z,2.30
2022-09-20T06:28:06.698Z,2.90
2022-09-20T06:29:06.687Z,3.10
2022-09-20T06:30:06.725Z,4.30
2022-09-20T06:31:06.705Z,4.20
2022-09-20T06:32:06.673Z,4.20
2022-09-20T06:33:06.668Z,3.40
2022-09-20T06:34:06.609Z,3.50
2022-09-20T06:35:06.653Z,3.40
2022-09-20T06:36:06.606Z,2.80
2022-09-20T06:37:06.600Z,2.10
2022-09-20T06:38:06.672Z,2.30
2022-09-20T06:39:06.562Z,2.10
2022-09-20T06:40:06.617Z,2.20
2022-09-20T06:41:06.564Z,1.80
2022-09-20T06:42:06.590Z,2.20
2022-09-20T06:43:06.560Z,1.60
2022-09-20T06:44:06.631Z,1.90
2022-09-20T06:45:06.617Z,1.40
2022-09-20T06:46:06.544Z,1.50
2022-09-20T06:47:06.483Z,1.40
2022-09-20T06:48:06.570Z,1.80
2022-09-20T06:49:06.491Z,2.00
2022-09-20T06:50:06.466Z,1.80
2022-09-20T06:51:06.482Z,2.00
2022-09-20T06:52:06.421Z,1.90
2022-09-20T06:53:06.426Z,2.50
2022-09-20T06:54:06.437Z,2.00
2022-09-20T06:55:06.420Z,3.30
2022-09-20T06:56:06.407Z,2.70
2022-09-20T06:57:06.401Z,2.10
2022-09-20T06:58:06.392Z,2.10
2022-09-20T06:59:06.573Z,2.30
2022-09-20T07:00:06.384Z,2.30
2022-09-20T07:01:06.407Z,2.80
2022-09-20T07:02:06.400Z,2.50
2022-09-20T07:03:06.311Z,2.20
2022-09-20T07:04:06.383Z,2.30
2022-09-20T07:05:06.285Z,2.80
2022-09-20T07:06:06.266Z,2.50
2022-09-20T07:07:09.449Z,2.80
2022-09-20T07:08:06.248Z,2.40
2022-09-20T07:09:06.369Z,2.60
2022-09-20T07:10:06.222Z,2.40
2022-09-20T07:11:06.235Z,2.60
2022-09-20T07:12:06.271Z,2.10
2022-09-20T07:13:06.214Z,1.80
2022-09-20T07:14:06.391Z,1.80
2022-09-20T07:15:06.183Z,1.80
2022-09-20T07:16:06.214Z,2.50
2022-09-20T07:17:06.202Z,2.30
2022-09-20T07:18:06.158Z,2.30
2022-09-20T07:19:06.151Z,2.60
2022-09-20T07:20:06.121Z,1.90
2022-09-20T07:21:06.109Z,1.80
2022-09-20T07:22:06.177Z,1.80
2022-09-20T07:23:06.106Z,1.80
2022-09-20T07:24:06.134Z,1.80
2022-09-20T07:25:06.110Z,1.70
2022-09-20T07:26:06.050Z,2.00
2022-09-20T07:27:06.068Z,1.60
2022-09-20T07:28:06.042Z,1.90
2022-09-20T07:29:06.208Z,2.00
2022-09-20T07:30:06.013Z,1.60
2022-09-20T07:31:06.010Z,1.60
2022-09-20T07:32:05.985Z,1.80
2022-09-20T07:33:06.002Z,1.90
2022-09-20T07:34:06.010Z,1.50
2022-09-20T07:35:05.974Z,1.80
2022-09-20T07:36:05.966Z,1.70
2022-09-20T07:37:06.028Z,1.70
2022-09-20T07:38:05.924Z,1.90
2022-09-20T07:39:05.955Z,1.70
2022-09-20T07:40:05.967Z,1.50
2022-09-20T07:41:05.927Z,1.70
2022-09-20T07:42:05.874Z,1.60
2022-09-20T07:43:05.882Z,1.80
2022-09-20T07:44:06.008Z,1.80
2022-09-20T07:45:06.065Z,1.90
2022-09-20T07:46:05.902Z,1.70
2022-09-20T07:47:05.819Z,2.00
2022-09-20T07:48:05.813Z,1.50
2022-09-20T07:49:05.875Z,1.90
2022-09-20T07:50:05.815Z,1.80
2022-09-20T07:51:08.767Z,2.40
2022-09-20T07:52:05.780Z,1.70
2022-09-20T07:53:05.763Z,1.90
2022-09-20T07:54:05.806Z,1.90
2022-09-20T07:55:05.802Z,1.60
2022-09-20T07:56:05.764Z,1.70
2022-09-20T07:57:05.744Z,2.00
2022-09-20T07:58:05.730Z,1.90
2022-09-20T07:59:05.868Z,1.70
2022-09-20T08:00:05.729Z,1.90
2022-09-20T08:01:05.729Z,1.90
2022-09-20T08:02:05.779Z,1.90
2022-09-20T08:03:05.640Z,1.60
2022-09-20T08:04:05.694Z,1.80
2022-09-20T08:05:05.666Z,2.00
2022-09-20T08:06:05.611Z,2.00
2022-09-20T08:07:05.630Z,1.90
2022-09-20T08:08:05.626Z,1.80
2022-09-20T08:09:10.243Z,1.70
2022-09-20T08:10:06.611Z,1.90
2022-09-20T08:11:05.586Z,1.70
2022-09-20T08:14:07.697Z,2.00
2022-09-20T08:15:08.517Z,2.10
2022-09-20T08:16:06.500Z,2.30
2022-09-20T08:17:05.502Z,1.80
2022-09-20T08:18:05.636Z,2.10
2022-09-20T08:19:05.489Z,1.90
2022-09-20T08:20:05.507Z,2.40
2022-09-20T08:21:05.466Z,2.00
2022-09-20T08:22:05.470Z,1.80
2022-09-20T08:23:22.537Z,2.10
2022-09-20T08:24:06.457Z,2.00
2022-09-20T08:25:05.423Z,2.30
2022-09-20T08:26:07.032Z,1.90
2022-09-20T08:27:05.495Z,2.20
2022-09-20T08:28:05.379Z,2.60
2022-09-20T08:29:05.539Z,2.30
2022-09-20T08:30:05.362Z,2.00
2022-09-20T08:31:05.338Z,2.20
2022-09-20T08:32:05.389Z,2.10
2022-09-20T08:33:05.314Z,1.90
2022-09-20T08:34:05.335Z,1.80
2022-09-20T08:35:05.287Z,1.60
2022-09-20T08:36:05.280Z,1.90
2022-09-20T08:37:05.280Z,2.00
2022-09-20T08:40:06.483Z,1.80
2022-09-20T08:41:05.250Z,1.90
2022-09-20T08:42:05.252Z,2.20
2022-09-20T08:43:05.518Z,1.80
2022-09-20T08:44:05.427Z,1.60
2022-09-20T08:45:05.214Z,2.00
2022-09-20T08:46:05.603Z,2.20
2022-09-20T08:47:05.186Z,1.80
2022-09-20T08:48:05.167Z,1.90
2022-09-20T08:49:05.509Z,1.90
2022-09-20T08:50:16.827Z,2.10
2022-09-20T08:51:06.141Z,2.40
2022-09-20T08:52:10.377Z,2.10
2022-09-20T08:53:06.111Z,1.90
2022-09-20T08:54:05.669Z,2.10
2022-09-20T08:55:07.713Z,2.30
2022-09-20T08:56:05.083Z,2.50
2022-09-20T08:57:05.100Z,2.10
2022-09-20T08:58:08.741Z,2.30
2022-09-20T08:59:05.141Z,2.20
2022-09-20T09:00:05.053Z,2.10
2022-09-20T09:01:05.084Z,2.00
2022-09-20T09:02:05.058Z,2.00
2022-09-20T09:03:04.986Z,2.10
2022-09-20T09:04:05.104Z,2.00
2022-09-20T09:05:05.029Z,3.60
2022-09-20T09:06:10.336Z,5.10
2022-09-20T09:07:05.942Z,3.20
2022-09-20T09:08:05.159Z,2.60
2022-09-20T09:09:04.938Z,2.40
2022-09-20T09:10:05.124Z,1.80
2022-09-20T09:11:04.906Z,1.60
2022-09-20T09:12:04.917Z,2.00
2022-09-20T09:13:05.004Z,2.10
2022-09-20T09:14:04.951Z,1.90
2022-09-20T09:15:04.907Z,1.80
2022-09-20T09:16:04.894Z,2.20
2022-09-20T09:17:04.923Z,2.10
2022-09-20T09:18:04.812Z,1.60
2022-09-20T09:19:04.998Z,1.90
2022-09-20T09:20:04.797Z,1.90
2022-09-20T09:21:04.807Z,2.00
2022-09-20T09:22:04.950Z,1.80
2022-09-20T09:23:04.783Z,2.10
2022-09-20T09:24:04.771Z,1.80
2022-09-20T09:25:04.743Z,1.80
2022-09-20T09:26:04.782Z,2.10
2022-09-20T09:27:04.713Z,2.10
2022-09-20T09:28:04.710Z,1.90
2022-09-20T09:29:04.739Z,2.00
2022-09-20T09:30:04.693Z,2.50
2022-09-20T09:31:04.722Z,2.00
2022-09-20T09:32:04.710Z,2.50
2022-09-20T09:33:04.653Z,2.00
2022-09-20T09:34:04.802Z,2.70
2022-09-20T09:35:04.633Z,2.00
2022-09-20T09:36:04.651Z,2.70
2022-09-20T09:37:04.654Z,2.80
2022-09-20T09:38:04.609Z,2.30
2022-09-20T09:39:04.659Z,2.20
2022-09-20T09:40:04.632Z,2.20
2022-09-20T09:41:04.598Z,2.10
2022-09-20T09:42:04.555Z,2.20
2022-09-20T09:43:04.546Z,2.50
2022-09-20T09:44:04.547Z,2.40
2022-09-20T09:45:04.539Z,2.30
2022-09-20T09:46:04.619Z,2.20
2022-09-20T09:47:04.545Z,2.20
2022-09-20T09:48:04.494Z,2.20
2022-09-20T09:49:05.119Z,2.50
2022-09-20T09:50:08.906Z,2.40
2022-09-20T09:51:05.454Z,2.30
2022-09-20T09:52:04.506Z,2.00
2022-09-20T09:53:04.492Z,2.10
2022-09-20T09:54:04.476Z,2.20
2022-09-20T09:55:05.820Z,2.20
2022-09-20T09:56:04.410Z,2.10
2022-09-20T09:57:04.396Z,1.90
2022-09-20T09:58:04.388Z,2.10
2022-09-20T09:59:04.414Z,2.10
2022-09-20T10:00:10.085Z,1.90
2022-09-20T10:01:05.454Z,2.20
2022-09-20T10:02:04.410Z,2.10
2022-09-20T10:03:04.368Z,2.40
2022-09-20T10:04:04.391Z,2.10
2022-09-20T10:05:04.361Z,2.10
2022-09-20T10:06:04.300Z,2.00
2022-09-20T10:07:04.286Z,1.80
2022-09-20T10:08:04.295Z,1.90
2022-09-20T10:09:04.337Z,2.00
2022-09-20T10:10:04.259Z,2.40
2022-09-20T10:11:04.327Z,2.20
2022-09-20T10:12:04.293Z,2.00
2022-09-20T10:13:04.291Z,1.90
2022-09-20T10:14:04.212Z,2.00
2022-09-20T10:15:04.199Z,1.80
2022-09-20T10:16:04.197Z,2.70
2022-09-20T10:17:04.205Z,2.10
2022-09-20T10:18:04.191Z,1.80
2022-09-20T10:19:04.299Z,2.10
2022-09-20T10:20:04.185Z,2.10
2022-09-20T10:21:04.156Z,2.10
2022-09-20T10:22:04.174Z,1.70
2022-09-20T10:23:34.875Z,1.90
2022-09-20T10:24:05.250Z,1.80
2022-09-20T10:25:04.099Z,1.70
2022-09-20T10:26:04.142Z,1.80
2022-09-20T10:27:04.156Z,1.80
2022-09-20T10:28:04.060Z,1.70
2022-09-20T10:29:04.061Z,1.70
2022-09-20T10:30:04.035Z,1.80
2022-09-20T10:31:04.053Z,1.80
2022-09-20T10:32:04.138Z,1.80
2022-09-20T10:33:04.026Z,2.00
2022-09-20T10:34:04.016Z,1.90
2022-09-20T10:35:03.998Z,1.70
2022-09-20T10:36:03.979Z,1.90
2022-09-20T10:37:03.969Z,2.20
2022-09-20T10:38:04.016Z,1.90
2022-09-20T10:39:03.999Z,2.10
2022-09-20T10:40:03.999Z,1.90
2022-09-20T10:41:04.008Z,1.70
2022-09-20T10:42:03.953Z,1.90
2022-09-20T10:43:03.954Z,2.00
2022-09-20T10:44:05.590Z,2.00
2022-09-20T10:45:03.976Z,2.10
2022-09-20T10:46:27.905Z,2.00
2022-09-20T10:47:04.942Z,1.90
2022-09-20T10:48:03.841Z,2.10
2022-09-20T10:49:03.888Z,1.80
2022-09-20T10:50:03.822Z,1.80
2022-09-20T10:51:03.853Z,2.10
2022-09-20T10:52:03.807Z,2.00
2022-09-20T10:53:03.924Z,2.00
2022-09-20T10:54:03.803Z,2.10
2022-09-20T10:55:03.898Z,1.80
2022-09-20T10:56:03.760Z,3.00
2022-09-20T10:57:03.865Z,2.20
2022-09-20T10:58:03.731Z,2.20
2022-09-20T10:59:03.768Z,2.20
2022-09-20T11:00:03.721Z,2.00
2022-09-20T11:01:03.833Z,2.90
2022-09-20T11:02:03.839Z,2.00
2022-09-20T11:03:03.697Z,2.10
2022-09-20T11:04:03.702Z,1.60
2022-09-20T11:05:03.665Z,1.60
2022-09-20T11:06:03.666Z,1.90
2022-09-20T11:07:03.674Z,1.90
2022-09-20T11:08:03.625Z,1.90
2022-09-20T11:09:03.625Z,2.00
2022-09-20T11:10:03.658Z,1.90
2022-09-20T11:11:03.621Z,1.70
2022-09-20T11:12:03.618Z,1.50
2022-09-20T11:13:03.613Z,1.60
2022-09-20T11:14:03.585Z,2.00
2022-09-20T11:15:03.610Z,1.80
2022-09-20T11:16:03.539Z,1.50
2022-09-20T11:17:03.628Z,2.00
2022-09-20T11:18:03.521Z,1.90
2022-09-20T11:19:03.749Z,1.70
2022-09-20T11:20:07.147Z,1.90
2022-09-20T11:21:03.531Z,2.00
2022-09-20T11:22:03.486Z,2.10
2022-09-20T11:23:03.492Z,1.70
2022-09-20T11:24:03.478Z,2.00
2022-09-20T11:25:03.484Z,1.60
2022-09-20T11:26:03.434Z,1.90
2022-09-20T11:27:03.428Z,1.90
2022-09-20T11:28:03.418Z,2.40
2022-09-20T11:29:03.449Z,2.20
2022-09-20T11:30:03.477Z,1.90
2022-09-20T11:31:03.441Z,2.10
2022-09-20T11:32:03.516Z,1.90
2022-09-20T11:33:03.392Z,2.00
2022-09-20T11:34:03.351Z,1.70
2022-09-20T11:35:03.375Z,1.80
2022-09-20T11:36:03.342Z,1.60
2022-09-20T11:37:03.473Z,1.60
2022-09-20T11:38:03.367Z,1.70
2022-09-20T11:39:03.321Z,1.70
2022-09-20T11:40:03.364Z,1.70
2022-09-20T11:41:03.316Z,1.40
2022-09-20T11:42:03.267Z,1.50
2022-09-20T11:43:03.269Z,1.60
2022-09-20T11:44:03.325Z,1.70
2022-09-20T11:45:03.239Z,1.50
2022-09-20T11:46:03.315Z,1.80
2022-09-20T11:47:03.221Z,1.90
2022-09-20T11:48:03.200Z,1.70
2022-09-20T11:49:03.216Z,1.50
2022-09-20T11:50:03.194Z,1.60
2022-09-20T11:51:03.174Z,1.70
2022-09-20T11:52:03.151Z,1.60
2022-09-20T11:53:03.144Z,1.10
2022-09-20T11:54:03.152Z,1.00
2022-09-20T11:55:03.138Z,1.00
2022-09-20T11:56:03.140Z,1.00
2022-09-20T11:57:03.136Z,1.20
2022-09-20T11:58:03.090Z,1.10
2022-09-20T11:59:03.098Z,1.10
2022-09-20T12:00:03.084Z,1.10
2022-09-20T12:01:03.051Z,1.10
2022-09-20T12:02:03.150Z,1.10
2022-09-20T12:03:03.258Z,0.90
2022-09-20T12:04:31.124Z,1.00
2022-09-20T12:05:04.023Z,0.90
2022-09-20T12:06:03.062Z,1.00
2022-09-20T12:07:08.305Z,1.00
2022-09-20T12:08:04.069Z,1.20
2022-09-20T12:09:03.019Z,1.10
2022-09-20T12:10:02.977Z,1.10
2022-09-20T12:11:02.966Z,1.10
2022-09-20T12:12:03.080Z,1.10
2022-09-20T12:13:02.963Z,1.10
2022-09-20T12:14:02.930Z,1.10
2022-09-20T12:15:02.938Z,1.10
2022-09-20T12:16:03.045Z,0.90
2022-09-20T12:17:02.890Z,1.00
2022-09-20T12:18:08.228Z,1.10
2022-09-20T12:19:03.988Z,1.30
2022-09-20T12:20:02.864Z,1.00
2022-09-20T12:21:02.839Z,1.00
2022-09-20T12:22:02.838Z,1.00
2022-09-20T12:23:02.865Z,1.10
2022-09-20T12:24:02.811Z,0.90
2022-09-20T12:25:02.845Z,0.90
2022-09-20T12:26:02.823Z,1.00
2022-09-20T12:27:02.787Z,1.00
2022-09-20T12:28:02.843Z,1.00
2022-09-20T12:29:02.784Z,1.10
2022-09-20T12:30:02.743Z,1.20
2022-09-20T12:31:02.778Z,1.20
2022-09-20T12:32:02.763Z,1.40
2022-09-20T12:33:02.707Z,1.00
2022-09-20T12:34:02.817Z,1.10
2022-09-20T12:35:02.706Z,1.20
2022-09-20T12:36:02.676Z,1.00
2022-09-20T12:37:02.717Z,0.80
2022-09-20T12:38:02.671Z,1.00
2022-09-20T12:39:02.737Z,0.90
2022-09-20T12:40:02.733Z,0.90
2022-09-20T12:41:02.620Z,1.00
2022-09-20T12:42:02.611Z,1.00
2022-09-20T12:43:02.624Z,1.10
2022-09-20T12:44:02.642Z,1.10
2022-09-20T12:45:02.603Z,0.90
2022-09-20T12:46:06.345Z,0.70
2022-09-20T12:47:03.559Z,0.70
2022-09-20T12:48:02.553Z,0.80
2022-09-20T12:49:02.535Z,0.80
2022-09-20T12:50:02.548Z,0.70
2022-09-20T12:51:02.517Z,0.80
2022-09-20T12:52:02.516Z,1.00
2022-09-20T12:53:02.517Z,1.00
2022-09-20T12:54:02.487Z,0.80
2022-09-20T12:55:06.562Z,0.80
2022-09-20T12:56:03.474Z,0.80
2022-09-20T12:57:02.546Z,0.90
2022-09-20T12:58:02.446Z,1.00
2022-09-20T12:59:02.455Z,0.90
2022-09-20T13:00:02.488Z,0.90
2022-09-20T13:01:02.501Z,0.70
2022-09-20T13:02:02.474Z,0.90
2022-09-20T13:03:02.387Z,0.80
2022-09-20T13:04:02.411Z,0.90
2022-09-20T13:05:02.368Z,0.90
2022-09-20T13:06:02.365Z,1.00
2022-09-20T13:07:02.389Z,0.80
2022-09-20T13:08:02.379Z,1.20
2022-09-20T13:09:02.319Z,1.00
2022-09-20T13:10:02.314Z,1.10
2022-09-20T13:11:02.331Z,1.00
2022-09-20T13:12:02.284Z,0.90
2022-09-20T13:13:02.323Z,1.10
2022-09-20T13:14:02.290Z,1.00
2022-09-20T13:15:02.286Z,0.90
2022-09-20T13:16:02.323Z,1.20
2022-09-20T13:17:02.232Z,1.10
2022-09-20T13:18:02.225Z,1.20
2022-09-20T13:19:02.272Z,1.20
2022-09-20T13:20:02.198Z,1.00
2022-09-20T13:21:02.201Z,1.10
2022-09-20T13:22:02.184Z,1.10